Time;durP1;ratioP1;P1;durP2;ratioP2;P2;SDS_P1;SDS_P2;PMS_P1;PMS_P2;Temp;Humidity;BMP_temperature;BMP_pressure;BME280_temperature;BME280_humidity;BME280_pressure;Samples;Min_cycle;Max_cycle;Signal;HPM_P1;HPM_P2
2022/02/01 00:02:08;;;;;;;5.38;1.40;;;;;;;1.87;95.41;100308.41;4898519;29;20036;-79
2022/02/01 00:04:52;;;;;;;5.22;1.27;;;;;;;1.92;95.83;100311.44;4897227;29;20048;-80
2022/02/01 00:07:34;;;;;;;9.17;1.83;;;;;;;1.93;96.33;100302.50;4898709;29;20047;-80
2022/02/01 00:10:12;;;;;;;7.57;1.77;;;;;;;1.97;97.19;100300.34;4896914;29;20033;-80
2022/02/01 00:36:32;;;;;;;5.80;1.73;;;;;;;2.21;100.00;100250.06;4898518;29;20044;-80
2022/02/01 00:41:28;;;;;;;11.35;1.70;;;;;;;2.06;100.00;100195.94;4901618;29;20036;-79
2022/02/01 00:43:53;;;;;;;11.52;2.20;;;;;;;2.32;100.00;100239.19;4913482;29;20025;-80
2022/02/01 00:46:19;;;;;;;3.92;0.98;;;;;;;2.23;100.00;100247.25;4882870;29;20045;-80
2022/02/01 00:48:44;;;;;;;3.05;0.68;;;;;;;1.89;100.00;100221.56;4877085;29;20111;-80
2022/02/01 00:51:11;;;;;;;2.35;0.45;;;;;;;1.59;100.00;100201.59;4904979;29;20143;-80
2022/02/01 00:53:39;;;;;;;1.98;0.35;;;;;;;1.61;100.00;100207.59;4904231;29;20032;-80
2022/02/01 00:56:05;;;;;;;1.35;0.45;;;;;;;1.40;100.00;100169.03;4899201;29;20482;-80
2022/02/01 00:58:30;;;;;;;3.03;0.50;;;;;;;1.55;100.00;100195.78;4901197;29;20040;-80
2022/02/01 01:00:56;;;;;;;3.30;0.77;;;;;;;1.61;100.00;100181.91;4902368;29;20472;-80
2022/02/01 01:03:21;;;;;;;2.30;0.47;;;;;;;1.64;100.00;100180.78;4903223;29;20037;-81
2022/02/01 01:05:46;;;;;;;6.95;0.70;;;;;;;1.61;100.00;100170.47;4904390;29;20107;-80
2022/02/01 01:08:12;;;;;;;2.22;0.57;;;;;;;1.62;100.00;100164.19;4887317;29;20063;-79
2022/02/01 01:10:37;;;;;;;2.85;0.60;;;;;;;1.63;100.00;100163.22;4888478;29;20104;-80
2022/02/01 01:15:36;;;;;;;8.60;1.65;;;;;;;1.62;100.00;100161.53;4885367;29;20116;-80
2022/02/01 01:44:52;;;;;;;6.72;1.10;;;;;;;2.20;100.00;100159.97;4897607;29;20088;-80
2022/02/01 01:53:19;;;;;;;4.82;0.70;;;;;;;2.42;100.00;100153.22;4848012;29;20092;-80
2022/02/01 01:55:52;;;;;;;5.93;0.98;;;;;;;2.46;100.00;100149.28;4861248;29;20029;-80
2022/02/01 01:58:18;;;;;;;7.63;1.23;;;;;;;2.41;100.00;100138.28;4881378;29;20037;-79
2022/02/01 02:01:09;;;;;;;7.20;1.10;;;;;;;1.91;100.00;100051.59;4900091;29;20440;-79
2022/02/01 02:03:34;;;;;;;5.32;0.80;;;;;;;2.35;100.00;100143.28;4898563;29;20056;-79
2022/02/01 02:06:00;;;;;;;5.55;0.93;;;;;;;2.42;100.00;100156.75;4868884;29;20068;-80
2022/02/01 02:08:26;;;;;;;7.00;1.00;;;;;;;2.46;100.00;100166.03;4915414;29;20032;-79
2022/02/01 02:15:54;;;;;;;7.97;1.10;;;;;;;2.31;99.95;100135.78;4900168;29;20032;-79
2022/02/01 02:18:20;;;;;;;10.23;1.02;;;;;;;2.47;99.73;100162.38;4885712;29;20088;-79
2022/02/01 02:21:07;;;;;;;6.07;0.70;;;;;;;2.43;100.00;100147.78;4883210;29;20084;-80
2022/02/01 02:23:32;;;;;;;7.78;0.90;;;;;;;2.41;100.00;100151.56;4898900;29;20073;-79
2022/02/01 02:25:58;;;;;;;4.25;0.70;;;;;;;2.33;99.25;100137.28;4899616;29;20131;-79
2022/02/01 02:28:24;;;;;;;4.60;0.70;;;;;;;2.32;98.22;100138.28;4898684;29;20454;-79
2022/02/01 02:30:51;;;;;;;6.93;1.00;;;;;;;2.38;97.89;100150.06;4884320;29;20459;-79
2022/02/01 02:33:18;;;;;;;6.40;0.93;;;;;;;2.21;96.08;100125.31;4899175;29;20032;-79
2022/02/01 02:36:02;;;;;;;7.15;1.20;;;;;;;2.38;94.83;100141.28;4899888;29;20430;-78
2022/02/01 02:46:37;;;;;;;4.68;1.17;;;;;;;2.14;88.54;100105.72;4899476;29;20031;-78
2022/02/01 02:49:05;;;;;;;6.32;0.77;;;;;;;2.47;86.66;100154.41;4898483;29;20047;-79
2022/02/01 02:51:31;;;;;;;9.50;1.48;;;;;;;2.29;88.19;100121.84;4898168;29;20143;-78
2022/02/01 02:53:56;;;;;;;11.73;2.28;;;;;;;2.47;89.51;100148.28;4899285;29;20111;-78
2022/02/01 02:56:22;;;;;;;9.45;1.50;;;;;;;2.24;89.33;100113.53;4882094;29;20059;-79
2022/02/01 02:58:51;;;;;;;5.07;1.05;;;;;;;2.46;89.28;100144.78;4883061;29;20092;-79
2022/02/01 03:01:20;;;;;;;6.07;1.17;;;;;;;2.35;88.51;100122.03;4896570;29;20376;-79
2022/02/01 03:03:46;;;;;;;4.00;0.95;;;;;;;2.43;88.08;100141.63;4898044;29;20040;-79
2022/02/01 03:06:11;;;;;;;6.13;1.20;;;;;;;2.37;87.13;100118.38;4898856;29;20394;-79
2022/02/01 03:08:37;;;;;;;9.60;1.70;;;;;;;2.31;85.78;100119.84;4883012;29;20040;-79
2022/02/01 03:11:07;;;;;;;6.10;1.10;;;;;;;2.27;85.37;100127.31;4899176;29;20433;-79
2022/02/01 03:13:34;;;;;;;6.40;1.10;;;;;;;2.42;84.71;100145.25;4899482;29;20032;-79
2022/02/01 03:16:52;;;;;;;6.82;1.30;;;;;;;2.40;85.33;100140.13;4899665;29;20025;-79
2022/02/01 03:21:33;;;;;;;7.93;1.25;;;;;;;2.29;85.37;100130.66;4898736;29;20087;-79
2022/02/01 03:23:59;;;;;;;5.95;1.15;;;;;;;2.27;84.54;100129.16;4898203;29;20463;-79
2022/02/01 03:26:24;;;;;;;5.93;1.35;;;;;;;2.39;83.46;100137.66;4895848;29;20032;-79
2022/02/01 03:28:49;;;;;;;7.65;1.33;;;;;;;2.38;83.20;100151.91;4895972;29;20035;-79
2022/02/01 03:31:16;;;;;;;7.10;1.40;;;;;;;2.30;81.40;100136.78;4897722;29;20739;-80
2022/02/01 03:33:41;;;;;;;7.53;1.40;;;;;;;2.41;82.43;100138.28;4895636;29;20044;-80
2022/02/01 03:36:07;;;;;;;7.22;1.50;;;;;;;2.10;81.39;100085.81;4899759;29;20345;-80
2022/02/01 03:38:32;;;;;;;5.38;1.38;;;;;;;2.30;80.99;100116.38;4897623;29;20545;-80
2022/02/01 03:40:58;;;;;;;4.57;1.00;;;;;;;2.39;81.05;100119.88;4898732;29;20044;-80
2022/02/01 03:43:24;;;;;;;8.02;1.67;;;;;;;2.34;81.08;100119.53;4897552;29;20033;-80
2022/02/01 03:45:49;;;;;;;8.85;1.65;;;;;;;2.04;78.02;100071.34;4900637;29;20055;-79
2022/02/01 03:48:15;;;;;;;6.75;1.60;;;;;;;2.29;78.56;100109.41;4896869;29;20055;-79
2022/02/01 03:50:40;;;;;;;7.55;1.35;;;;;;;2.16;78.68;100094.94;4898036;29;20115;-79
2022/02/01 03:53:07;;;;;;;7.45;1.30;;;;;;;2.32;78.97;100095.81;4895284;29;20076;-79
2022/02/01 03:55:34;;;;;;;4.65;1.15;;;;;;;2.14;77.38;100075.69;4897835;29;20108;-79
2022/02/01 03:57:59;;;;;;;9.00;1.40;;;;;;;2.29;78.21;100085.53;4896359;29;20412;-79
2022/02/01 04:00:24;;;;;;;7.15;1.23;;;;;;;2.30;79.15;100081.88;4897311;29;20159;-79
2022/02/01 04:02:50;;;;;;;7.80;1.30;;;;;;;2.19;79.56;100071.56;4895796;29;20059;-79
2022/02/01 04:05:15;;;;;;;10.63;1.60;;;;;;;2.28;80.74;100083.84;4897685;29;20037;-79
2022/02/01 04:07:46;;;;;;;9.60;1.60;;;;;;;2.29;82.73;100074.91;4895588;29;20123;-79
2022/02/01 04:10:12;;;;;;;11.10;1.40;;;;;;;2.23;80.66;100080.03;4882737;29;20137;-79
2022/02/01 04:12:39;;;;;;;6.65;1.30;;;;;;;2.22;79.89;100087.16;4897633;29;20032;-79
2022/02/01 04:15:06;;;;;;;10.65;1.65;;;;;;;2.24;80.67;100084.34;4894720;29;20120;-79
2022/02/01 04:17:31;;;;;;;7.97;1.70;;;;;;;2.18;79.78;100071.72;4897039;29;20036;-78
2022/02/01 04:19:57;;;;;;;5.32;1.63;;;;;;;2.22;79.83;100089.81;4866070;29;20112;-79
2022/02/01 04:22:22;;;;;;;5.45;1.30;;;;;;;2.13;78.94;100088.13;4896456;29;20048;-80
2022/02/01 04:24:47;;;;;;;8.00;1.73;;;;;;;2.19;79.58;100082.19;4880735;29;20459;-78
2022/02/01 04:27:30;;;;;;;6.50;1.10;;;;;;;2.23;81.42;100088.81;4865473;29;20089;-79
2022/02/01 04:30:09;;;;;;;11.43;1.23;;;;;;;2.11;80.90;100071.53;4897778;29;20040;-79
2022/02/01 04:32:36;;;;;;;4.95;1.20;;;;;;;2.13;78.18;100080.19;4896666;29;20025;-79
2022/02/01 04:35:02;;;;;;;8.40;1.30;;;;;;;2.09;79.60;100070.88;4898629;29;20028;-79
2022/02/01 04:37:29;;;;;;;7.97;1.30;;;;;;;2.14;78.66;100068.56;4880103;29;20075;-79
2022/02/01 04:39:56;;;;;;;8.68;1.60;;;;;;;2.17;77.88;100056.78;4867110;29;20127;-78
2022/02/01 04:42:23;;;;;;;7.18;1.40;;;;;;;2.10;78.25;100044.16;4895500;29;20642;-79
2022/02/01 04:44:49;;;;;;;5.43;1.10;;;;;;;2.01;78.14;100039.00;4899085;29;20040;-79
2022/02/01 04:47:14;;;;;;;7.22;1.13;;;;;;;2.08;75.94;100050.63;4897316;29;20360;-79
2022/02/01 04:49:39;;;;;;;7.28;1.40;;;;;;;2.17;78.56;100054.97;4896683;29;20052;-80
2022/02/01 04:52:05;;;;;;;5.55;1.38;;;;;;;2.15;76.76;100062.25;4865963;29;20394;-78
2022/02/01 04:54:30;;;;;;;4.53;1.15;;;;;;;2.14;77.66;100057.13;4881881;29;20051;-79
2022/02/01 04:56:56;;;;;;;8.25;1.40;;;;;;;1.92;77.62;100010.78;4896457;29;20040;-79
2022/02/01 04:59:21;;;;;;;6.93;1.17;;;;;;;2.16;78.53;100058.63;4898234;29;20040;-79
2022/02/01 05:01:47;;;;;;;4.25;0.88;;;;;;;2.13;77.85;100042.19;4896879;29;20490;-79
2022/02/01 05:04:18;;;;;;;3.95;1.00;;;;;;;2.13;75.61;100043.03;4882745;29;20064;-79
2022/02/01 05:06:47;;;;;;;3.70;1.10;;;;;;;1.78;75.80;99978.59;4899279;29;20033;-79
2022/02/01 05:09:12;;;;;;;6.53;1.00;;;;;;;2.13;76.56;100034.22;4899113;29;20046;-78
2022/02/01 05:11:38;;;;;;;5.88;0.90;;;;;;;2.01;76.77;100028.41;4883104;29;20463;-79
2022/02/01 05:14:13;;;;;;;5.40;1.02;;;;;;;2.18;78.22;100055.78;4899567;29;20037;-78
2022/02/01 05:16:57;;;;;;;4.35;0.93;;;;;;;2.06;79.53;100040.19;4882587;29;20071;-79
2022/02/01 05:22:04;;;;;;;9.63;1.10;;;;;;;1.88;79.60;100028.84;4886107;29;20029;-77
2022/02/01 05:24:30;;;;;;;5.55;1.08;;;;;;;1.99;80.16;100056.94;4900228;29;20448;-78
2022/02/01 05:26:57;;;;;;;6.50;0.93;;;;;;;1.98;80.05;100060.56;4901422;29;20033;-78
2022/02/01 05:29:23;;;;;;;9.10;1.00;;;;;;;1.91;79.50;100043.63;4904149;29;20056;-78
2022/02/01 05:31:50;;;;;;;6.68;1.02;;;;;;;1.91;79.65;100049.75;4899913;29;20028;-78
2022/02/01 05:34:16;;;;;;;7.22;1.00;;;;;;;1.85;79.13;100026.53;4881611;29;20471;-78
2022/02/01 05:36:41;;;;;;;4.03;0.90;;;;;;;1.84;79.20;100016.91;4882074;29;20032;-79
2022/02/01 05:39:17;;;;;;;7.30;0.90;;;;;;;1.95;78.67;100037.00;4894711;29;20071;-80
2022/02/01 05:41:44;;;;;;;5.28;0.73;;;;;;;1.90;78.83;100023.41;4904498;29;20104;-78
2022/02/01 05:44:09;;;;;;;6.15;0.88;;;;;;;1.92;79.45;100034.66;4899932;29;20044;-78
2022/02/01 05:46:35;;;;;;;7.13;1.17;;;;;;;1.77;79.70;100019.38;4898383;29;20039;-78
2022/02/01 05:49:04;;;;;;;3.22;0.68;;;;;;;1.56;79.74;100011.88;4898974;29;20032;-79
2022/02/01 05:51:30;;;;;;;7.10;1.13;;;;;;;1.39;80.06;100008.31;4899631;29;20044;-80
2022/02/01 05:53:56;;;;;;;4.95;0.88;;;;;;;1.47;79.91;99990.78;4882217;29;20040;-79
2022/02/01 05:56:22;;;;;;;7.68;1.17;;;;;;;1.52;79.50;99983.16;4897908;29;20071;-79
2022/02/01 05:58:47;;;;;;;5.90;1.05;;;;;;;1.62;79.18;100002.41;4899994;29;20048;-79
2022/02/01 06:01:13;;;;;;;10.07;1.00;;;;;;;1.40;78.99;99956.97;4882505;29;20375;-78
2022/02/01 06:03:38;;;;;;;7.78;1.02;;;;;;;1.63;79.19;99994.31;4867061;29;20052;-78
2022/02/01 06:06:04;;;;;;;11.18;1.10;;;;;;;1.60;79.42;99989.34;4898884;29;20017;-79
2022/02/01 06:08:29;;;;;;;4.22;1.00;;;;;;;1.49;78.83;99975.53;4898508;29;20039;-79
2022/02/01 06:10:55;;;;;;;7.78;0.68;;;;;;;1.55;79.01;99981.03;4898637;29;20040;-78
2022/02/01 06:13:20;;;;;;;6.10;0.80;;;;;;;1.57;79.05;99972.91;4898323;29;20083;-78
2022/02/01 06:15:46;;;;;;;7.00;1.00;;;;;;;1.56;78.85;99955.38;4898398;29;20052;-78
2022/02/01 06:18:11;;;;;;;6.25;0.93;;;;;;;1.63;78.95;99956.38;4899339;29;20033;-78
2022/02/01 06:20:37;;;;;;;7.03;1.20;;;;;;;1.62;79.20;99938.78;4882763;29;20424;-78
2022/02/01 06:23:02;;;;;;;7.47;1.23;;;;;;;1.51;79.20;99920.53;4899305;29;20475;-78
2022/02/01 06:25:47;;;;;;;8.57;1.10;;;;;;;1.56;79.02;99942.09;4900841;29;20025;-78
2022/02/01 06:28:13;;;;;;;7.32;0.90;;;;;;;1.45;79.45;99918.53;4898727;29;20485;-78
2022/02/01 06:30:39;;;;;;;4.93;0.93;;;;;;;1.53;79.42;99926.53;4898998;29;20052;-78
2022/02/01 06:33:04;;;;;;;5.60;0.90;;;;;;;1.44;78.79;99922.19;4897636;29;20060;-78
2022/02/01 06:35:30;;;;;;;6.22;1.00;;;;;;;1.73;78.31;99942.97;4900097;29;20039;-78
2022/02/01 06:37:55;;;;;;;6.22;1.00;;;;;;;1.73;77.58;99930.53;4896558;29;20041;-78
2022/02/01 06:40:21;;;;;;;7.53;0.60;;;;;;;1.82;76.34;99918.09;4898717;29;20043;-78
2022/02/01 06:42:47;;;;;;;5.80;0.93;;;;;;;1.90;75.98;99923.44;4897749;29;20443;-78
2022/02/01 06:45:12;;;;;;;7.70;1.42;;;;;;;2.09;77.40;99920.44;4899159;29;20430;-78
2022/02/01 06:47:38;;;;;;;4.82;0.70;;;;;;;2.17;76.73;99921.44;4883122;29;20032;-78
2022/02/01 06:50:05;;;;;;;5.18;0.98;;;;;;;2.12;76.75;99919.28;4897276;29;20095;-78
2022/02/01 06:52:31;;;;;;;4.95;0.70;;;;;;;2.08;76.84;99907.34;4900034;29;20056;-80
2022/02/01 06:55:01;;;;;;;4.05;0.80;;;;;;;2.18;76.50;99913.28;4897826;29;20033;-79
2022/02/01 06:57:26;;;;;;;5.63;0.90;;;;;;;2.10;76.86;99906.19;4897479;29;20025;-78
2022/02/01 06:59:52;;;;;;;6.60;1.13;;;;;;;2.19;76.12;99911.50;4893456;29;20072;-78
2022/02/01 07:02:18;;;;;;;5.57;1.00;;;;;;;2.18;75.56;99892.06;4893377;29;20028;-79
2022/02/01 07:04:43;;;;;;;3.78;0.68;;;;;;;2.19;75.29;99890.25;4895086;29;20602;-78
2022/02/01 07:07:08;;;;;;;5.05;0.90;;;;;;;2.17;74.90;99887.75;4895571;29;20037;-79
2022/02/01 07:09:35;;;;;;;6.95;0.70;;;;;;;2.01;75.41;99859.41;4879754;29;20119;-79
2022/02/01 07:12:01;;;;;;;5.88;0.88;;;;;;;2.15;74.74;99862.38;4892838;29;20341;-78
2022/02/01 07:14:26;;;;;;;10.88;1.20;;;;;;;2.14;75.44;99853.59;4892008;29;20047;-79
2022/02/01 07:16:51;;;;;;;3.65;0.65;;;;;;;2.24;75.31;99870.16;4893308;29;20774;-79
2022/02/01 07:19:17;;;;;;;3.88;0.88;;;;;;;2.18;75.38;99860.22;4880018;29;20494;-78
2022/02/01 07:21:42;;;;;;;4.22;0.70;;;;;;;2.17;74.79;99855.09;4893945;29;20107;-78
2022/02/01 07:24:15;;;;;;;3.53;0.73;;;;;;;2.16;74.41;99848.97;4894379;29;20029;-79
2022/02/01 07:26:41;;;;;;;5.45;0.68;;;;;;;2.18;74.69;99854.09;4866861;29;20036;-79
2022/02/01 07:29:08;;;;;;;6.53;0.70;;;;;;;2.16;75.49;99843.66;4882057;29;20032;-78
2022/02/01 07:31:34;;;;;;;4.35;0.85;;;;;;;1.96;75.46;99821.94;4896232;29;20037;-78
2022/02/01 07:33:59;;;;;;;5.40;0.98;;;;;;;2.14;75.08;99834.19;4882820;29;20502;-80
2022/02/01 07:36:25;;;;;;;6.63;0.55;;;;;;;2.07;75.04;99816.28;4879240;29;20033;-81
2022/02/01 07:38:50;;;;;;;6.70;0.98;;;;;;;2.21;75.19;99836.00;4869019;29;20382;-79
2022/02/01 07:41:16;;;;;;;6.70;1.30;;;;;;;2.20;75.33;99830.88;4892190;29;20136;-79
2022/02/01 07:43:41;;;;;;;7.40;0.85;;;;;;;2.20;75.86;99821.06;4893911;29;20061;-80
2022/02/01 07:46:10;;;;;;;4.80;0.70;;;;;;;1.99;76.43;99794.25;4893723;29;20024;-79
2022/02/01 07:48:36;;;;;;;5.53;0.73;;;;;;;2.09;76.29;99809.00;4896492;29;20024;-79
2022/02/01 07:51:02;;;;;;;6.68;0.77;;;;;;;2.19;76.40;99814.13;4896214;29;20119;-79
2022/02/01 07:53:28;;;;;;;5.03;0.90;;;;;;;2.22;75.87;99813.78;4912602;29;20534;-79
2022/02/01 07:55:53;;;;;;;4.85;1.00;;;;;;;2.18;74.97;99804.47;4894527;29;20053;-79
2022/02/01 07:58:19;;;;;;;7.30;1.08;;;;;;;2.13;74.14;99793.56;4895187;29;20044;-79
2022/02/01 08:00:44;;;;;;;4.68;1.20;;;;;;;2.27;73.84;99792.84;4896394;29;20486;-80
2022/02/01 08:03:11;;;;;;;15.25;3.40;;;;;;;2.03;73.25;99743.34;4894622;29;20051;-80
2022/02/01 08:05:37;;;;;;;12.93;4.18;;;;;;;2.34;72.59;99769.09;4897121;29;20051;-80
2022/02/01 08:08:03;;;;;;;9.38;1.88;;;;;;;2.41;72.64;99762.09;4898060;29;20056;-79
2022/02/01 08:10:37;;;;;;;6.00;1.35;;;;;;;2.43;72.43;99754.00;4878122;29;20341;-79
2022/02/01 08:21:04;;;;;;;3.85;0.75;;;;;;;2.41;72.70;99726.78;4898466;29;20051;-77
2022/02/01 08:23:30;;;;;;;4.55;0.50;;;;;;;2.15;72.34;99685.41;4897810;29;20111;-81
2022/02/01 08:25:58;;;;;;;2.33;0.55;;;;;;;2.47;72.76;99734.06;4897271;29;20024;-77
2022/02/01 08:28:23;;;;;;;1.90;0.60;;;;;;;2.47;72.60;99734.88;4896932;29;20070;-78
2022/02/01 08:30:50;;;;;;;2.83;0.90;;;;;;;2.49;71.71;99722.25;4897496;29;20056;-77
2022/02/01 08:33:16;;;;;;;3.78;1.10;;;;;;;2.50;72.45;99715.13;4897272;29;20040;-77
2022/02/01 08:35:41;;;;;;;5.38;1.33;;;;;;;2.34;72.23;99670.88;4898798;29;20028;-77
2022/02/01 08:38:06;;;;;;;4.85;1.45;;;;;;;2.53;72.80;99698.84;4895555;29;20107;-77
2022/02/01 08:40:32;;;;;;;2.50;0.50;;;;;;;2.51;72.52;99692.88;4881462;29;20352;-78
2022/02/01 08:42:57;;;;;;;3.70;0.50;;;;;;;2.56;72.45;99694.00;4897074;29;20043;-77
2022/02/01 08:45:24;;;;;;;3.78;0.70;;;;;;;2.56;72.39;99682.56;4866192;29;20029;-78
2022/02/01 08:47:52;;;;;;;4.22;0.70;;;;;;;2.56;73.00;99683.38;4895956;29;20166;-77
2022/02/01 08:50:23;;;;;;;4.63;0.40;;;;;;;2.63;72.71;99677.38;4897180;29;20052;-77
2022/02/01 08:52:50;;;;;;;2.33;0.45;;;;;;;2.57;72.78;99661.13;4882693;29;20064;-78
2022/02/01 08:55:22;;;;;;;5.47;0.60;;;;;;;2.55;73.07;99646.38;4882463;29;20047;-78
2022/02/01 08:57:48;;;;;;;3.47;0.90;;;;;;;2.64;72.81;99655.13;4896676;29;20039;-77
2022/02/01 09:00:16;;;;;;;6.00;0.85;;;;;;;2.60;73.31;99646.69;4898481;29;20115;-78
2022/02/01 09:02:42;;;;;;;5.63;0.52;;;;;;;2.51;73.35;99637.09;4901808;29;20036;-78
2022/02/01 09:05:09;;;;;;;5.90;0.63;;;;;;;2.58;74.19;99643.38;4901900;29;20048;-77
2022/02/01 09:07:35;;;;;;;3.13;0.40;;;;;;;2.57;74.37;99631.09;4899551;29;20509;-78
2022/02/01 09:10:01;;;;;;;4.72;0.70;;;;;;;2.51;74.59;99619.34;4902543;29;20048;-78
2022/02/01 09:12:26;;;;;;;5.53;0.60;;;;;;;2.47;75.24;99609.25;4901537;29;20028;-77
2022/02/01 09:14:52;;;;;;;3.72;0.40;;;;;;;2.55;75.68;99609.19;4886212;29;20036;-77
2022/02/01 09:17:19;;;;;;;3.35;0.50;;;;;;;2.52;76.60;99596.28;4901628;29;20040;-77
2022/02/01 09:19:44;;;;;;;2.38;0.50;;;;;;;2.47;77.18;99582.72;4901796;29;20040;-78
2022/02/01 09:22:11;;;;;;;3.78;0.77;;;;;;;2.53;77.32;99588.13;4899736;29;20032;-78
2022/02/01 09:24:37;;;;;;;5.13;0.82;;;;;;;2.49;77.91;99586.03;4900966;29;20039;-77
2022/02/01 09:27:02;;;;;;;4.55;0.60;;;;;;;2.25;78.24;99548.03;4885566;29;20033;-77
2022/02/01 09:29:28;;;;;;;4.85;0.60;;;;;;;2.36;78.53;99549.44;4902713;29;20412;-78
2022/02/01 09:31:54;;;;;;;3.45;0.88;;;;;;;2.30;78.58;99542.19;4899365;29;20049;-78
2022/02/01 09:34:21;;;;;;;4.20;0.73;;;;;;;2.31;79.06;99547.31;4904191;29;20064;-78
2022/02/01 09:36:50;;;;;;;3.83;0.70;;;;;;;2.34;78.25;99557.56;4887309;29;20032;-78
2022/02/01 09:39:17;;;;;;;7.70;1.23;;;;;;;2.31;78.31;99552.59;4906216;29;20108;-77
2022/02/01 09:41:42;;;;;;;5.65;0.90;;;;;;;2.02;77.38;99486.13;4883259;29;20032;-77
2022/02/01 09:44:08;;;;;;;4.40;0.80;;;;;;;2.32;77.23;99525.09;4900774;29;20469;-77
2022/02/01 09:46:35;;;;;;;6.43;1.23;;;;;;;2.19;77.43;99495.66;4898484;29;20017;-77
2022/02/01 09:49:01;;;;;;;5.05;0.70;;;;;;;2.32;76.96;99514.47;4897806;29;20036;-78
2022/02/01 09:51:26;;;;;;;4.63;0.68;;;;;;;2.38;76.98;99506.78;4898977;29;20123;-78
2022/02/01 09:53:53;;;;;;;5.38;0.80;;;;;;;2.42;76.89;99506.25;4900369;29;20040;-77
2022/02/01 09:56:18;;;;;;;3.67;0.80;;;;;;;2.41;77.42;99493.16;4899242;29;20033;-79
2022/02/01 09:58:54;;;;;;;3.20;0.70;;;;;;;2.39;78.00;99481.91;4868736;29;20029;-79
2022/02/01 10:01:24;;;;;;;7.13;0.90;;;;;;;2.16;79.01;99442.94;4895168;29;20450;-78
2022/02/01 10:04:05;;;;;;;6.50;0.70;;;;;;;2.25;80.04;99452.47;4900719;29;20036;-79
2022/02/01 10:06:32;;;;;;;7.97;0.90;;;;;;;2.28;80.66;99452.09;4899995;29;20489;-79
2022/02/01 10:09:12;;;;;;;9.27;1.00;;;;;;;2.34;81.35;99454.03;4899652;29;20179;-79
2022/02/01 10:11:41;;;;;;;7.35;1.42;;;;;;;2.21;81.70;99434.41;4897397;29;20028;-79
2022/02/01 10:14:09;;;;;;;6.38;1.48;;;;;;;2.20;82.46;99428.28;4900807;29;20029;-79
2022/02/01 10:16:48;;;;;;;6.97;1.10;;;;;;;2.32;82.88;99426.88;4902184;29;20478;-79
2022/02/01 10:19:13;;;;;;;5.38;1.50;;;;;;;2.22;83.33;99409.53;4884542;29;20036;-80
2022/02/01 10:21:51;;;;;;;9.38;1.58;;;;;;;2.06;83.85;99376.84;4899570;29;20043;-80
2022/02/01 10:24:37;;;;;;;38.55;14.00;;;;;;;2.27;84.29;99402.69;4900823;29;20025;-79
2022/02/01 10:27:18;;;;;;;9.18;2.58;;;;;;;2.25;84.38;99394.09;4897926;29;20473;-80
2022/02/01 10:32:43;;;;;;;7.75;2.17;;;;;;;2.15;85.40;99368.78;4900676;29;20060;-79
2022/02/01 10:38:04;;;;;;;3.63;0.80;;;;;;;2.05;86.67;99361.09;4900881;29;20545;-79
2022/02/01 10:40:37;;;;;;;6.00;1.55;;;;;;;1.91;87.01;99332.69;4901270;29;20040;-81
2022/02/01 10:43:04;;;;;;;5.72;1.40;;;;;;;2.01;87.49;99341.22;4907852;29;20108;-80
2022/02/01 10:45:41;;;;;;;6.53;1.42;;;;;;;1.70;87.95;99288.31;4900326;29;20074;-79
2022/02/01 10:48:12;;;;;;;9.50;2.78;;;;;;;1.85;88.65;99305.06;4896701;29;20365;-79
2022/02/01 10:50:37;;;;;;;5.90;1.05;;;;;;;1.53;89.09;99246.03;4894984;29;20043;-83
2022/02/01 10:53:03;;;;;;;8.75;1.02;;;;;;;1.79;89.96;99282.75;4875056;29;20053;-80
2022/02/01 10:55:28;;;;;;;8.63;1.30;;;;;;;1.79;90.19;99282.75;4883951;29;20048;-79
2022/02/01 10:57:54;;;;;;;10.40;0.93;;;;;;;1.65;90.88;99249.88;4900172;29;20048;-80
2022/02/01 11:00:19;;;;;;;4.35;1.10;;;;;;;1.61;91.07;99230.03;4901673;29;20115;-81
2022/02/01 11:02:46;;;;;;;10.05;0.95;;;;;;;1.71;91.87;99235.09;4903058;29;20047;-81
2022/02/01 11:05:14;;;;;;;7.30;1.10;;;;;;;1.49;92.30;99201.47;4899608;29;20056;-81
2022/02/01 11:07:39;;;;;;;5.72;0.80;;;;;;;1.63;92.61;99216.63;4902306;29;20033;-79
2022/02/01 11:10:09;;;;;;;9.27;0.65;;;;;;;1.58;93.21;99206.53;4898613;29;20033;-79
2022/02/01 11:12:38;;;;;;;6.25;1.13;;;;;;;1.47;94.51;99187.59;4898379;29;20063;-80
2022/02/01 11:15:04;;;;;;;6.85;0.77;;;;;;;1.36;94.48;99173.78;4899829;29;20032;-79
2022/02/01 11:17:40;;;;;;;7.32;1.02;;;;;;;1.52;94.60;99185.22;4896951;29;20527;-79
2022/02/01 11:20:06;;;;;;;5.85;1.10;;;;;;;1.49;95.17;99167.03;4899616;29;20058;-78
2022/02/01 11:22:38;;;;;;;7.80;1.00;;;;;;;1.34;95.45;99148.47;4880088;29;20368;-79
2022/02/01 11:25:26;;;;;;;4.53;0.80;;;;;;;1.26;95.64;99135.28;4897720;29;20043;-78
2022/02/01 11:30:42;;;;;;;4.20;0.95;;;;;;;1.40;96.06;99137.16;4899790;29;20044;-79
2022/02/01 11:33:10;;;;;;;4.47;0.93;;;;;;;1.44;96.28;99125.16;4895133;29;20040;-78
2022/02/01 11:35:37;;;;;;;5.43;1.05;;;;;;;1.36;96.80;99104.88;4897298;29;20033;-79
2022/02/01 11:38:21;;;;;;;3.47;0.88;;;;;;;1.32;96.75;99087.69;4899560;29;20037;-79
2022/02/01 11:41:03;;;;;;;3.00;0.80;;;;;;;1.49;96.88;99114.00;4881464;29;20354;-78
2022/02/01 11:43:29;;;;;;;4.32;0.85;;;;;;;1.48;97.01;99112.38;4897344;29;20036;-78
2022/02/01 11:46:01;;;;;;;7.28;1.20;;;;;;;1.37;97.37;99082.69;4902460;29;20039;-78
2022/02/01 11:48:32;;;;;;;5.40;0.95;;;;;;;1.29;98.01;99066.88;4898053;29;20025;-78
2022/02/01 11:51:00;;;;;;;6.00;1.88;;;;;;;1.27;98.19;99044.22;4898561;29;20039;-78
2022/02/01 11:53:29;;;;;;;6.30;1.42;;;;;;;1.48;98.16;99051.41;4898228;29;20088;-78
2022/02/01 11:55:55;;;;;;;6.53;1.30;;;;;;;1.43;98.21;99040.56;4899394;29;20036;-79
2022/02/01 11:58:28;;;;;;;5.75;1.20;;;;;;;1.49;98.49;99045.09;4899515;29;20028;-81
2022/02/01 12:00:54;;;;;;;6.53;1.40;;;;;;;1.34;99.13;99023.91;4899113;29;20032;-78
2022/02/01 12:03:27;;;;;;;9.40;1.60;;;;;;;1.50;98.94;99021.09;4899577;29;20032;-79
2022/02/01 12:05:57;;;;;;;8.95;1.70;;;;;;;1.55;98.60;99021.34;4899421;29;20028;-81
2022/02/01 12:08:28;;;;;;;10.23;1.70;;;;;;;1.53;98.65;99010.13;4866062;29;20029;-79
2022/02/01 12:11:03;;;;;;;10.05;1.35;;;;;;;1.36;99.84;99003.38;4897530;29;20035;-79
2022/02/01 12:13:31;;;;;;;6.93;1.23;;;;;;;1.02;100.00;98988.00;4898508;29;20447;-78
2022/02/01 12:16:02;;;;;;;7.30;1.38;;;;;;;0.94;100.00;98988.94;4898108;29;20036;-78
2022/02/01 12:18:45;;;;;;;6.85;1.38;;;;;;;1.01;100.00;98987.19;4894481;29;20037;-79
2022/02/01 12:21:20;;;;;;;12.27;4.00;;;;;;;1.11;100.00;98981.63;4894258;29;20060;-80
2022/02/01 12:23:50;;;;;;;18.60;7.72;;;;;;;0.93;100.00;98974.88;4897489;29;20119;-79
2022/02/01 12:26:24;;;;;;;5.47;1.77;;;;;;;0.74;100.00;98972.75;4881644;29;20479;-79
2022/02/01 12:28:52;;;;;;;7.13;3.65;;;;;;;0.59;100.00;98924.25;4897374;29;20039;-80
2022/02/01 12:31:18;;;;;;;7.82;3.50;;;;;;;0.57;100.00;98921.81;4879218;29;20048;-80
2022/02/01 12:34:04;;;;;;;7.93;1.83;;;;;;;0.83;100.00;98942.56;4879668;29;20387;-79
2022/02/01 12:36:38;;;;;;;9.70;2.63;;;;;;;0.59;100.00;98914.50;4899931;29;20040;-79
2022/02/01 12:39:12;;;;;;;8.90;2.92;;;;;;;0.76;100.00;98925.72;4897031;29;20340;-79
2022/02/01 12:41:54;;;;;;;8.05;3.38;;;;;;;0.83;100.00;98924.00;4895678;29;20115;-79
2022/02/01 12:46:54;;;;;;;8.80;2.17;;;;;;;0.60;100.00;98894.16;4899737;29;20028;-79
2022/02/01 12:49:31;;;;;;;4.60;1.38;;;;;;;0.77;100.00;98889.50;4900985;29;20032;-79
2022/02/01 12:51:57;;;;;;;7.35;2.08;;;;;;;0.69;100.00;98874.53;4901586;29;20068;-79
2022/02/01 12:54:28;;;;;;;7.93;2.03;;;;;;;0.62;100.00;98850.59;4913891;29;20470;-78
2022/02/01 12:57:04;;;;;;;9.98;4.25;;;;;;;0.58;100.00;98838.75;4898200;29;20056;-80
2022/02/01 12:59:41;;;;;;;16.60;8.02;;;;;;;0.49;100.00;98825.78;4898805;29;20165;-80
2022/02/01 13:02:12;;;;;;;14.23;6.90;;;;;;;0.50;100.00;98812.41;4893406;29;20044;-80
2022/02/01 13:04:38;;;;;;;11.07;5.60;;;;;;;0.40;100.00;98794.16;4896968;29;20176;-79
2022/02/01 13:07:14;;;;;;;10.02;3.20;;;;;;;0.49;100.00;98801.97;4898754;29;20032;-79
2022/02/01 13:15:07;;;;;;;9.57;3.47;;;;;;;0.50;100.00;98761.28;4899959;29;20047;-79
2022/02/01 13:20:08;;;;;;;7.80;2.83;;;;;;;0.64;100.00;98768.41;4897216;29;20051;-79
2022/02/01 13:22:35;;;;;;;7.80;2.83;;;;;;;0.62;100.00;98757.16;4896661;29;20185;-79
2022/02/01 13:25:08;;;;;;;6.57;2.30;;;;;;;0.54;100.00;98751.97;4880533;29;20444;-77
2022/02/01 13:27:34;;;;;;;7.70;3.72;;;;;;;0.58;100.00;98747.97;4891019;29;20028;-78
2022/02/01 13:30:06;;;;;;;11.63;3.90;;;;;;;0.29;100.00;98711.78;4896984;29;20047;-79